Главная страница
METAR-TAF:

METAR-TAF

Аэропорты :

Лахор, Пакистан

широта: 31-31N, долгота: 074-24E, высота над уровнем моря: 216 м

Текущие метеонаблюдения

Эта сводка был подготовлена 20 минут назад, в 11:29 UTC
Ветер 4 Узел от восточно-северо-восточный
Температура 23°C
Влажность 41%
Давление 1013 hPa
Видимость: 4000 м
небольшая облачность на высоте 10000 фута
мгла

METAR: OPLA 181129Z 07004KT 4000 HZ FEW100 23/09 Q1013 RMK QFE987 RMK A29.91

Время: 16:49 (11:49 UTC)

Прогноз

Эта сводка был подготовлена 2 часа и 4 минут назад, в 09:45 UTC
Прогноз действительный с 18-го 12 UTC до 19-го 18 UTC
Ветер 5 Узел от северо-северо-восточный
Видимость: 4000 м
дым
временами
С 19-го 01 UTC до 19-го 05 UTC
Ветер 2 Узел переменных направлений
Видимость: 2000 м
дымка
изменения
С 19-го 08 UTC до 19-го 13 UTC
Ветер 6 Узел от северо-восточный
Видимость: 6000 м

TAF: OPLA 180945Z 1812/1918 03005KT 4000 FU NSC TX27/1910Z TN12/1901Z TEMPO 1901/1905 VRB02KT 2000 BR NSC BECMG 1908/1913 05006KT 6000 NSC

Метеонаблюдения и прогнозы для более 4000 аэропортов (сводки METAR и TAF).

Имеющиеся станции представлены на карте желтыми и красными точками.

Чтобы увидеть название станции, наведите на нее мышь.

Затем щелкните, чтобы увидеть метеонаблюдения и метеопрогнозы.

Управление картой: чтобы увеличить масштаб, щелкните зеленые кнопки с черным крестиком; чтобы уменьшить масштаб, щелкните зеленую кнопку с тире; для просмотра соседних карт щелкайте зеленые стрелки.


METAR-TAF: